Terminal Aerodrome Forecast
Issued by NWS

Home | Current Version | Previous Version | Text Only | Print | Product List | Glossary On
Versions: 1 2 3 4 5 6 7 8 9 10 11 12 13 14 15 16 17
220
FTUS41 KBTV 241738
TAFRUT
TAF
KRUT 241738Z 2418/2518 20006KT P6SM BKN035
     FM242000 18006KT P6SM SCT035 SCT150
     FM250300 15007KT P6SM FEW250 WS020/23030KT
     FM251400 18007KT P6SM FEW200=

USA.gov is the U.S. government's official web portal to all federal, state and local government web resources and services.